Terminal Aerodrome Forecast
Issued by NWS Sterling, VA

Home | Current Version | Previous Version | Text Only | Print | Product List | Glossary On
Versions: 1 2 3 4 5 6 7 8 9 10 11 12 13 14 15 16 17 18 19 20 21 22 23 24 25 26
000
FTUS41 KLWX 180200 AAA
TAFBWI
TAF AMD
KBWI 180252Z 1803/1906 11009KT P6SM BKN025
     FM180400 06005KT P6SM OVC010
     FM181400 09004KT P6SM OVC050
     FM182000 15004KT P6SM OVC250=

USA.gov is the U.S. government's official web portal to all federal, state and local government web resources and services.